Upstream stations:
Downstream station:
SHEF ID: CNUK1 NEOSHO R NR CHANUTE, KS
STATION TYPE:
Regulating: Stage = 22.00, Flow = 20159
PRECIP STAGE RIV-FLOW VOLTAGE BAT-LOAD
in ft cfs volt volt
Ccp-Rev Ccp-Rev Ccp-Rev Ccp-Rev Ccp-Rev
(US/Central)
04/01 00:00 0.00 14.98 7846 12.81 12.65
04/01 01:00 0.00 14.96 7802 12.73 12.65
04/01 02:00 0.00 14.94 7759 12.73 12.57
04/01 03:00 0.00 14.92 7715 12.73 12.57
04/01 04:00 0.00 14.91 7694 12.65 12.57
04/01 05:00 0.00 14.87 7607 12.65 12.57
04/01 06:00 0.00 14.86 7586 12.65 12.49
04/01 07:00 0.00 14.84 7543 12.65 12.49
04/01 08:00 0.00 14.81 7480 12.65 12.49
04/01 09:00 0.00 14.80 7458 12.65 12.49
04/01 10:00 0.00 14.77 7395 12.81 12.57
04/01 11:00 0.00 14.74 7332 13.53 12.97
04/01 12:00 0.00 14.72 7291 13.60 13.44
04/01 13:00 0.00 14.70 7249 13.60 13.53
04/01 14:00 0.00 14.68 7208 13.53 13.60
04/01 15:00 0.00 14.65 7146 13.92 13.68
04/01 16:00 0.00 14.64 7126 13.53 13.60
04/01 17:00 0.00 14.63 7106 14.08 13.21
04/01 18:00 0.00 14.61 7065 13.84 13.21
04/01 19:00 0.00 14.57 6984 13.13 13.05
04/01 20:00 0.00 14.56 6964 12.89 12.89
04/01 21:00 0.00 14.53 6904 12.89 12.73
04/01 22:00 0.00 14.52 6884 12.81 12.73
04/01 23:00 0.00 14.51 6864 12.81 12.65